createdAt,value
2022-07-31T11:01:53.195Z,8.80
2022-07-31T11:03:46.762Z,9.00
2022-07-31T11:06:01.353Z,9.40
2022-07-31T11:07:46.483Z,6.60
2022-07-31T11:09:33.952Z,7.60
2022-07-31T11:11:58.326Z,13.20
2022-07-31T11:14:08.576Z,29.60
2022-07-31T11:16:06.270Z,35.60
2022-07-31T11:18:26.375Z,34.00
2022-07-31T11:20:30.341Z,23.00
2022-07-31T11:22:30.783Z,26.80
2022-07-31T11:24:03.037Z,29.20
2022-07-31T11:25:37.375Z,29.20
2022-07-31T11:27:09.167Z,27.60
2022-07-31T11:28:43.990Z,27.60
2022-07-31T11:30:15.674Z,18.80
2022-07-31T11:31:47.437Z,26.60
2022-07-31T11:33:49.548Z,28.20
2022-07-31T11:35:28.721Z,22.80
2022-07-31T11:37:00.665Z,21.00
2022-07-31T11:38:32.364Z,28.40
2022-07-31T11:40:05.578Z,22.80
2022-07-31T11:41:44.109Z,20.00
2022-07-31T11:43:26.072Z,19.80
2022-07-31T11:45:10.888Z,18.20
2022-07-31T11:46:43.106Z,15.40
2022-07-31T11:48:16.138Z,23.60
2022-07-31T11:50:01.063Z,34.80
2022-07-31T11:51:32.819Z,28.60
2022-07-31T11:53:06.871Z,22.20
2022-07-31T11:54:39.128Z,19.60
2022-07-31T11:56:10.813Z,21.80
2022-07-31T11:57:50.933Z,23.60
2022-07-31T11:59:44.875Z,16.60
2022-07-31T12:01:18.359Z,22.20
2022-07-31T12:02:50.140Z,18.40
2022-07-31T12:04:21.879Z,17.00
2022-07-31T12:05:53.701Z,43.80
2022-07-31T12:07:25.488Z,36.20
2022-07-31T12:08:57.224Z,41.80
2022-07-31T12:10:28.950Z,24.60
2022-07-31T12:12:00.971Z,37.20
2022-07-31T12:13:32.782Z,30.40
2022-07-31T12:15:18.633Z,31.00
2022-07-31T12:16:50.411Z,29.20
2022-07-31T12:18:22.161Z,30.20
2022-07-31T12:19:57.907Z,29.80
2022-07-31T12:21:33.975Z,28.40
2022-07-31T12:23:06.037Z,29.40
2022-07-31T12:24:39.299Z,28.40
2022-07-31T12:26:12.763Z,25.00
2022-07-31T12:27:44.459Z,20.80
2022-07-31T12:29:16.173Z,24.40
2022-07-31T12:30:58.022Z,18.20
2022-07-31T12:32:29.819Z,20.20
2022-07-31T12:34:01.602Z,21.20
2022-07-31T12:35:56.518Z,15.60
2022-07-31T12:37:28.909Z,14.20
2022-07-31T12:39:01.395Z,14.20
2022-07-31T12:40:33.355Z,11.40
2022-07-31T12:42:05.278Z,15.40
2022-07-31T12:43:37.014Z,13.00
2022-07-31T12:45:17.932Z,13.20
2022-07-31T12:46:52.040Z,12.60
2022-07-31T12:48:23.752Z,10.60
2022-07-31T12:49:55.741Z,9.80
2022-07-31T12:51:44.288Z,10.00
2022-07-31T12:53:18.491Z,10.20
2022-07-31T12:54:50.335Z,10.00
2022-07-31T12:56:22.045Z,8.00
2022-07-31T12:57:54.567Z,30.80
2022-07-31T12:59:27.035Z,26.40
2022-07-31T13:00:59.212Z,24.20
2022-07-31T13:02:31.352Z,28.80
2022-07-31T13:04:03.610Z,17.60
2022-07-31T13:05:35.437Z,15.00
2022-07-31T13:07:07.733Z,16.40
2022-07-31T13:08:39.645Z,12.80
2022-07-31T13:10:20.054Z,17.60
2022-07-31T13:11:57.877Z,36.20
2022-07-31T13:13:30.023Z,31.80
2022-07-31T13:15:02.110Z,29.80
2022-07-31T13:16:34.007Z,23.40
2022-07-31T13:18:07.495Z,24.40
2022-07-31T13:19:39.360Z,24.80
2022-07-31T13:21:11.139Z,23.60
2022-07-31T13:22:42.939Z,20.80
2022-07-31T13:24:14.778Z,21.80
2022-07-31T13:25:46.558Z,22.20
2022-07-31T13:27:18.913Z,17.80
2022-07-31T13:28:50.723Z,24.60
2022-07-31T13:30:22.926Z,18.40
2022-07-31T13:31:54.720Z,17.00
2022-07-31T13:33:26.840Z,16.40
2022-07-31T13:35:24.029Z,20.60
2022-07-31T13:36:50.601Z,18.40
2022-07-31T13:38:22.409Z,16.40
2022-07-31T13:39:54.145Z,20.00
2022-07-31T13:41:28.293Z,14.20
2022-07-31T13:43:00.144Z,14.80
2022-07-31T13:44:33.317Z,17.80
2022-07-31T13:46:05.054Z,42.00
2022-07-31T13:47:51.062Z,35.00
2022-07-31T13:49:29.344Z,23.40
2022-07-31T13:51:01.674Z,29.80
2022-07-31T13:52:33.418Z,22.20
2022-07-31T13:54:05.705Z,26.20
2022-07-31T13:55:37.517Z,25.00
2022-07-31T13:57:09.237Z,30.80
2022-07-31T13:58:41.056Z,24.80
2022-07-31T14:00:13.393Z,25.00
2022-07-31T14:02:03.406Z,24.20
2022-07-31T14:03:36.699Z,27.60
2022-07-31T14:05:08.954Z,19.40
2022-07-31T14:06:40.814Z,23.40
2022-07-31T14:08:32.831Z,18.40
2022-07-31T14:10:05.440Z,19.00
2022-07-31T14:11:37.271Z,16.20
2022-07-31T14:13:09.307Z,18.40
2022-07-31T14:14:41.286Z,15.60
2022-07-31T14:16:13.101Z,14.20
2022-07-31T14:17:44.951Z,14.80
2022-07-31T14:19:16.759Z,14.00
2022-07-31T14:20:48.569Z,13.00
2022-07-31T14:22:20.307Z,13.20
2022-07-31T14:23:52.113Z,13.00
2022-07-31T14:25:23.891Z,7.80
2022-07-31T14:26:56.053Z,9.00
2022-07-31T14:28:28.736Z,9.40
2022-07-31T14:30:01.674Z,10.20
2022-07-31T14:31:33.469Z,8.20
2022-07-31T14:33:05.313Z,10.20
2022-07-31T14:34:36.982Z,8.00
2022-07-31T14:36:08.800Z,9.00
2022-07-31T14:37:43.554Z,8.00
2022-07-31T14:39:15.415Z,35.80
2022-07-31T14:40:48.581Z,44.20
2022-07-31T14:42:22.015Z,36.20
2022-07-31T14:43:54.301Z,32.00
2022-07-31T14:45:26.104Z,25.80
2022-07-31T14:46:58.355Z,26.80
2022-07-31T14:48:30.214Z,21.60
2022-07-31T14:50:09.279Z,25.00
2022-07-31T14:51:42.602Z,25.20
2022-07-31T14:53:14.380Z,24.00
2022-07-31T14:54:46.131Z,19.00
2022-07-31T14:56:30.698Z,17.20
2022-07-31T14:58:09.632Z,20.80
2022-07-31T14:59:41.391Z,22.20
2022-07-31T15:01:15.168Z,19.80
2022-07-31T15:02:49.348Z,19.40
2022-07-31T15:04:21.313Z,18.00
2022-07-31T15:06:43.862Z,10.20
2022-07-31T15:07:46.815Z,15.60
2022-07-31T15:09:20.144Z,15.00
2022-07-31T15:10:52.016Z,15.00
2022-07-31T15:12:23.888Z,18.60
2022-07-31T15:13:55.671Z,11.80
2022-07-31T15:15:28.435Z,14.00
2022-07-31T15:17:00.498Z,12.80
2022-07-31T15:18:32.207Z,13.20
2022-07-31T15:20:04.334Z,16.00
2022-07-31T15:21:36.605Z,16.80
2022-07-31T15:23:08.307Z,16.40
2022-07-31T15:24:43.847Z,11.60
2022-07-31T15:26:22.509Z,14.00
2022-07-31T15:27:54.266Z,15.60
2022-07-31T15:29:26.009Z,17.40
2022-07-31T15:31:17.705Z,8.60
2022-07-31T15:32:51.746Z,38.60
2022-07-31T15:34:23.559Z,31.40
2022-07-31T15:35:55.382Z,20.20
2022-07-31T15:37:27.083Z,24.60
2022-07-31T15:38:58.875Z,28.00
2022-07-31T15:40:30.659Z,21.60
2022-07-31T15:42:02.618Z,21.00
2022-07-31T15:43:37.570Z,24.40
2022-07-31T15:45:14.407Z,15.80
2022-07-31T15:46:46.247Z,14.20
2022-07-31T15:48:18.024Z,20.60
2022-07-31T15:49:49.865Z,22.40
2022-07-31T15:51:23.569Z,20.80
2022-07-31T15:52:55.273Z,16.80
2022-07-31T15:54:27.052Z,19.00
2022-07-31T15:55:58.841Z,18.20
2022-07-31T15:57:30.579Z,16.60
2022-07-31T15:59:02.268Z,18.80
2022-07-31T16:00:34.109Z,16.40
2022-07-31T16:02:05.848Z,18.00
2022-07-31T16:03:50.210Z,15.20
2022-07-31T16:05:36.135Z,12.60
2022-07-31T16:08:33.538Z,11.20
2022-07-31T16:09:00.899Z,14.20
2022-07-31T16:10:32.696Z,302.25
2022-07-31T16:12:05.780Z,277.25
2022-07-31T16:13:37.645Z,242.67
2022-07-31T16:15:11.348Z,242.33
2022-07-31T16:16:45.825Z,111.80
2022-07-31T16:18:18.844Z,93.25
2022-07-31T16:19:50.563Z,96.25
2022-07-31T16:21:22.277Z,99.25
2022-07-31T16:22:55.694Z,86.00
2022-07-31T16:24:27.800Z,68.50
2022-07-31T16:25:59.533Z,66.00
2022-07-31T16:27:31.295Z,59.00
2022-07-31T16:29:03.753Z,60.50
2022-07-31T16:30:35.717Z,57.00
2022-07-31T16:32:07.942Z,50.80
2022-07-31T16:33:40.093Z,50.00
2022-07-31T16:35:11.919Z,48.40
2022-07-31T16:36:44.339Z,48.60
2022-07-31T16:38:16.172Z,45.20
2022-07-31T16:39:48.469Z,43.60
2022-07-31T16:41:20.243Z,42.60
2022-07-31T16:42:53.175Z,39.40
2022-07-31T16:44:24.909Z,31.60
2022-07-31T16:45:56.808Z,38.60
2022-07-31T16:47:51.066Z,44.20
2022-07-31T16:49:35.571Z,42.60
2022-07-31T16:51:08.379Z,35.00
2022-07-31T16:52:40.239Z,35.00
2022-07-31T16:54:16.469Z,30.40
2022-07-31T16:56:01.456Z,28.80
2022-07-31T16:57:33.719Z,27.20
2022-07-31T16:59:07.060Z,28.40
2022-07-31T17:00:39.439Z,24.00
2022-07-31T17:02:12.924Z,25.20
2022-07-31T17:04:00.445Z,24.40
2022-07-31T17:05:34.060Z,23.00
2022-07-31T17:07:06.300Z,20.40
2022-07-31T17:08:38.478Z,22.00
2022-07-31T17:10:10.512Z,18.00
2022-07-31T17:11:42.387Z,19.60
2022-07-31T17:13:16.140Z,20.40
2022-07-31T17:14:48.679Z,19.00
2022-07-31T17:16:20.592Z,19.20
2022-07-31T17:17:52.432Z,17.60
2022-07-31T17:19:41.594Z,15.60
2022-07-31T17:21:17.017Z,15.40
2022-07-31T17:22:54.539Z,14.00
2022-07-31T17:24:26.402Z,15.00
2022-07-31T17:25:58.178Z,12.20
2022-07-31T17:27:29.880Z,14.00
2022-07-31T17:29:02.519Z,13.00
2022-07-31T17:30:34.529Z,11.40
2022-07-31T17:32:06.538Z,13.60
2022-07-31T17:34:00.682Z,11.80
2022-07-31T17:35:29.993Z,15.20
2022-07-31T17:37:01.865Z,12.00
2022-07-31T17:38:34.777Z,10.60
2022-07-31T17:40:21.590Z,9.00
2022-07-31T17:41:59.646Z,12.80
2022-07-31T17:43:31.371Z,9.20
2022-07-31T17:45:22.687Z,13.00
2022-07-31T17:46:58.119Z,13.40
2022-07-31T17:48:30.097Z,14.60
2022-07-31T17:50:01.796Z,14.00
2022-07-31T17:51:33.509Z,20.20
2022-07-31T17:53:05.292Z,15.00
2022-07-31T17:54:37.185Z,16.40
2022-07-31T17:56:12.806Z,16.80
2022-07-31T17:57:44.927Z,20.00
2022-07-31T17:59:16.742Z,19.60
2022-07-31T18:00:48.464Z,25.80
2022-07-31T18:02:20.871Z,19.80
2022-07-31T18:03:52.885Z,22.00
2022-07-31T18:05:24.610Z,16.60
2022-07-31T18:06:57.616Z,17.00
2022-07-31T18:08:30.007Z,18.40
2022-07-31T18:10:01.750Z,19.60
2022-07-31T18:11:33.513Z,18.40
2022-07-31T18:13:05.678Z,17.60
2022-07-31T18:14:37.397Z,18.80
2022-07-31T18:16:09.182Z,17.80
2022-07-31T18:17:50.329Z,19.40
2022-07-31T18:19:22.357Z,18.20
2022-07-31T18:20:54.470Z,17.40
2022-07-31T18:22:27.119Z,11.40
2022-07-31T18:24:07.795Z,18.00
2022-07-31T18:25:40.134Z,21.40
2022-07-31T18:27:11.931Z,17.60
2022-07-31T18:28:43.685Z,17.00
2022-07-31T18:30:15.821Z,20.40
2022-07-31T18:31:48.002Z,18.40
2022-07-31T18:33:19.863Z,17.80
2022-07-31T18:34:51.794Z,14.80
2022-07-31T18:36:24.021Z,15.00
2022-07-31T18:37:55.841Z,15.20
2022-07-31T18:39:28.853Z,15.40
2022-07-31T18:41:00.739Z,23.00
2022-07-31T18:42:32.589Z,38.60
2022-07-31T18:44:04.528Z,42.00
2022-07-31T18:45:36.443Z,28.40
2022-07-31T18:47:13.263Z,22.20
2022-07-31T18:48:45.070Z,18.40
2022-07-31T18:51:02.170Z,29.20
2022-07-31T18:52:10.125Z,32.20
2022-07-31T18:53:41.923Z,27.80
2022-07-31T18:55:13.755Z,26.40
2022-07-31T18:56:46.076Z,23.80
2022-07-31T18:58:17.776Z,22.00
2022-07-31T18:59:49.658Z,21.00
2022-07-31T19:01:22.048Z,18.00
2022-07-31T19:02:53.821Z,24.20
2022-07-31T19:04:25.845Z,24.20
2022-07-31T19:05:58.628Z,19.20
2022-07-31T19:07:30.784Z,17.20
2022-07-31T19:09:07.816Z,20.40
2022-07-31T19:10:39.533Z,15.60
2022-07-31T19:12:12.727Z,20.00
2022-07-31T19:13:44.680Z,19.80
2022-07-31T19:15:16.478Z,19.00
2022-07-31T19:16:48.381Z,17.80
2022-07-31T19:18:28.649Z,18.60
2022-07-31T19:20:02.424Z,20.40
2022-07-31T19:21:42.818Z,20.40
2022-07-31T19:23:14.800Z,30.40
2022-07-31T19:24:48.180Z,25.40
2022-07-31T19:26:19.983Z,32.20
2022-07-31T19:27:51.683Z,30.40
2022-07-31T19:29:24.292Z,25.00
2022-07-31T19:30:56.163Z,29.40
2022-07-31T19:32:27.991Z,29.00
2022-07-31T19:33:59.817Z,26.00
2022-07-31T19:35:31.909Z,21.00
2022-07-31T19:37:03.683Z,25.00
2022-07-31T19:38:39.754Z,24.60
2022-07-31T19:40:11.982Z,25.00
2022-07-31T19:42:12.025Z,20.80
2022-07-31T19:43:35.832Z,21.60
2022-07-31T19:45:08.081Z,21.40
2022-07-31T19:46:40.085Z,22.20
2022-07-31T19:48:11.874Z,21.20
2022-07-31T19:49:44.937Z,26.40
2022-07-31T19:51:16.700Z,19.80
2022-07-31T19:52:48.453Z,19.00
2022-07-31T19:54:20.250Z,21.40
2022-07-31T19:55:52.130Z,18.20
2022-07-31T19:57:24.912Z,20.80
2022-07-31T19:58:56.696Z,21.60
2022-07-31T20:00:29.097Z,23.40
2022-07-31T20:02:00.841Z,21.00
2022-07-31T20:03:32.820Z,20.60
2022-07-31T20:05:05.144Z,23.40
2022-07-31T20:06:39.025Z,20.20
2022-07-31T20:08:10.852Z,22.40
2022-07-31T20:09:42.617Z,29.20
2022-07-31T20:11:14.433Z,27.40
2022-07-31T20:12:46.245Z,24.00
2022-07-31T20:14:18.478Z,25.00
2022-07-31T20:15:51.714Z,28.40
2022-07-31T20:17:24.555Z,25.20
2022-07-31T20:18:56.313Z,30.40
2022-07-31T20:20:28.156Z,26.40
2022-07-31T20:21:59.989Z,24.00
2022-07-31T20:23:34.337Z,27.00
2022-07-31T20:25:11.871Z,22.40
2022-07-31T20:26:51.456Z,23.20
2022-07-31T20:28:23.323Z,28.80
2022-07-31T20:29:55.114Z,29.80
2022-07-31T20:31:26.870Z,29.40
2022-07-31T20:32:58.728Z,25.80
2022-07-31T20:34:30.791Z,19.00
2022-07-31T20:36:02.732Z,26.60
2022-07-31T20:37:34.591Z,27.20
2022-07-31T20:39:06.521Z,24.60
2022-07-31T20:40:38.457Z,24.00
2022-07-31T20:42:10.158Z,29.40
2022-07-31T20:43:41.885Z,20.20
2022-07-31T20:45:13.809Z,21.80
2022-07-31T20:46:45.634Z,46.80
2022-07-31T20:48:22.545Z,38.80
2022-07-31T20:49:54.407Z,35.80
2022-07-31T20:51:26.347Z,46.00
2022-07-31T20:52:58.106Z,39.80
2022-07-31T20:54:34.088Z,35.40
2022-07-31T20:56:06.751Z,35.40
2022-07-31T20:57:38.849Z,32.60
2022-07-31T20:59:10.724Z,31.80
2022-07-31T21:00:47.426Z,32.40
2022-07-31T21:02:19.582Z,32.60
2022-07-31T21:03:51.406Z,30.20
2022-07-31T21:05:27.413Z,32.60
2022-07-31T21:06:59.851Z,34.40
2022-07-31T21:08:31.601Z,28.80
2022-07-31T21:10:05.192Z,32.20
2022-07-31T21:11:37.311Z,28.80
2022-07-31T21:13:09.354Z,30.00
2022-07-31T21:14:41.181Z,28.20
2022-07-31T21:16:12.968Z,26.40
2022-07-31T21:17:44.752Z,28.20
2022-07-31T21:19:16.497Z,30.40
2022-07-31T21:20:51.678Z,26.20
2022-07-31T21:22:25.473Z,26.20
2022-07-31T21:24:00.818Z,28.00
2022-07-31T21:25:32.919Z,30.20
2022-07-31T21:27:04.730Z,28.80
2022-07-31T21:28:36.942Z,25.20
2022-07-31T21:30:08.985Z,27.00
2022-07-31T21:31:48.817Z,29.60
2022-07-31T21:33:22.992Z,33.80
2022-07-31T21:34:55.432Z,36.80
2022-07-31T21:36:27.294Z,35.60
2022-07-31T21:37:59.480Z,34.40
2022-07-31T21:39:32.551Z,34.80
2022-07-31T21:41:04.615Z,31.60
2022-07-31T21:42:37.522Z,33.40
2022-07-31T21:44:17.008Z,35.60
2022-07-31T21:45:57.501Z,35.40
2022-07-31T21:47:53.077Z,29.40
2022-07-31T21:49:25.351Z,27.00
2022-07-31T21:50:57.400Z,29.40
2022-07-31T21:52:30.074Z,30.40
2022-07-31T21:54:01.920Z,31.40
2022-07-31T21:55:33.686Z,32.60
2022-07-31T21:57:05.517Z,24.20
2022-07-31T21:58:40.905Z,26.00
2022-07-31T22:00:13.982Z,31.60
2022-07-31T22:01:58.097Z,31.60
2022-07-31T22:03:33.819Z,31.80
2022-07-31T22:05:24.282Z,31.80
2022-07-31T22:07:14.479Z,33.20
2022-07-31T22:08:46.225Z,34.00
2022-07-31T22:10:18.743Z,48.60
2022-07-31T22:12:05.159Z,44.60
2022-07-31T22:13:37.046Z,42.60
2022-07-31T22:15:11.264Z,41.60
2022-07-31T22:16:46.749Z,44.80
2022-07-31T22:18:18.790Z,40.80
2022-07-31T22:19:51.342Z,43.80
2022-07-31T22:21:23.381Z,42.40
2022-07-31T22:22:57.515Z,40.20
2022-07-31T22:24:29.767Z,42.40
2022-07-31T22:26:01.660Z,42.80
2022-07-31T22:27:52.365Z,43.20
2022-07-31T22:29:24.189Z,40.60
2022-07-31T22:30:56.283Z,41.00
2022-07-31T22:32:28.163Z,37.20
2022-07-31T22:34:00.021Z,39.80
